createdAt,value
2022-10-02T00:01:33.896Z,2.53
2022-10-02T00:04:03.668Z,2.22
2022-10-02T00:06:41.309Z,2.42
2022-10-02T00:09:16.870Z,2.83
2022-10-02T00:11:48.225Z,4.45
2022-10-02T00:14:20.067Z,2.30
2022-10-02T00:16:50.207Z,2.53
2022-10-02T00:19:20.159Z,2.38
2022-10-02T00:22:06.312Z,3.15
2022-10-02T00:24:39.800Z,3.30
2022-10-02T00:27:17.325Z,2.90
2022-10-02T00:29:51.384Z,3.17
2022-10-02T00:32:30.099Z,2.35
2022-10-02T00:35:26.603Z,3.08
2022-10-02T00:38:02.630Z,1.98
2022-10-02T00:40:43.067Z,2.88
2022-10-02T00:43:25.793Z,2.20
2022-10-02T00:46:23.537Z,2.10
2022-10-02T00:49:10.736Z,2.10
2022-10-02T00:51:52.907Z,2.72
2022-10-02T00:54:31.372Z,2.65
2022-10-02T00:57:10.198Z,2.47
2022-10-02T00:59:58.346Z,3.70
2022-10-02T01:03:01.043Z,2.92
2022-10-02T01:05:30.543Z,2.13
2022-10-02T01:07:58.679Z,1.77
2022-10-02T01:10:28.324Z,2.58
2022-10-02T01:12:57.978Z,2.70
2022-10-02T01:15:33.457Z,2.15
2022-10-02T01:18:03.266Z,2.42
2022-10-02T01:20:37.057Z,2.40
2022-10-02T01:23:14.988Z,2.45
2022-10-02T01:25:44.959Z,2.25
2022-10-02T01:28:13.697Z,2.20
2022-10-02T01:30:44.862Z,2.40
2022-10-02T01:33:16.565Z,2.65
2022-10-02T01:35:45.495Z,2.35
2022-10-02T01:38:16.483Z,2.08
2022-10-02T01:40:46.232Z,2.10
2022-10-02T01:43:18.068Z,2.20
2022-10-02T01:46:05.392Z,1.65
2022-10-02T01:48:46.385Z,2.35
2022-10-02T01:51:27.077Z,2.17
2022-10-02T01:54:06.008Z,2.15
2022-10-02T01:56:44.396Z,2.05
2022-10-02T01:59:21.844Z,1.45
2022-10-02T02:02:00.486Z,2.47
2022-10-02T02:04:34.083Z,2.25
2022-10-02T02:07:09.727Z,1.95
2022-10-02T02:09:43.748Z,2.63
2022-10-02T02:12:19.511Z,2.38
2022-10-02T02:14:53.117Z,2.13
2022-10-02T02:17:27.756Z,1.70
2022-10-02T02:20:02.009Z,2.13
2022-10-02T02:22:34.537Z,1.70
2022-10-02T02:25:08.018Z,3.28
2022-10-02T02:27:41.903Z,1.75
2022-10-02T02:30:13.201Z,2.30
2022-10-02T02:32:46.116Z,1.80
2022-10-02T02:35:18.707Z,1.73
2022-10-02T02:37:50.968Z,2.58
2022-10-02T02:40:24.209Z,1.80
2022-10-02T02:43:01.018Z,1.73
2022-10-02T02:45:33.434Z,2.10
2022-10-02T02:48:05.991Z,2.05
2022-10-02T02:50:40.712Z,2.53
2022-10-02T02:53:15.648Z,3.00
2022-10-02T02:55:48.381Z,1.63
2022-10-02T02:58:21.780Z,1.83
2022-10-02T03:00:50.465Z,1.67
2022-10-02T03:03:19.125Z,2.33
2022-10-02T03:05:51.893Z,2.75
2022-10-02T03:08:24.445Z,1.73
2022-10-02T03:11:06.356Z,1.80
2022-10-02T03:13:53.307Z,2.00
2022-10-02T03:16:37.801Z,1.88
2022-10-02T03:19:24.843Z,1.73
2022-10-02T03:22:02.764Z,2.03
2022-10-02T03:24:36.605Z,1.80
2022-10-02T03:27:11.050Z,1.85
2022-10-02T03:29:46.583Z,1.98
2022-10-02T03:32:17.511Z,2.67
2022-10-02T03:37:13.854Z,1.92
2022-10-02T03:39:44.264Z,1.67
2022-10-02T03:42:14.359Z,1.67
2022-10-02T03:44:44.456Z,2.80
2022-10-02T03:47:12.745Z,3.55
2022-10-02T03:49:40.890Z,1.83
2022-10-02T03:52:09.161Z,2.47
2022-10-02T03:54:38.150Z,1.70
2022-10-02T03:57:08.704Z,1.67
2022-10-02T03:59:45.932Z,1.52
2022-10-02T04:02:28.221Z,1.88
2022-10-02T04:05:01.720Z,1.80
2022-10-02T04:07:38.546Z,1.60
2022-10-02T04:10:24.294Z,1.98
2022-10-02T04:12:55.084Z,2.10
2022-10-02T04:15:30.288Z,1.70
2022-10-02T04:18:04.438Z,1.90
2022-10-02T04:20:41.765Z,2.00
2022-10-02T04:23:16.850Z,1.75
2022-10-02T04:25:51.117Z,2.00
2022-10-02T04:28:24.790Z,1.30
2022-10-02T04:30:55.077Z,1.98
2022-10-02T04:33:25.605Z,1.70
2022-10-02T04:36:04.457Z,1.65
2022-10-02T04:38:45.401Z,1.85
2022-10-02T04:44:05.871Z,2.10
2022-10-02T04:47:00.504Z,1.52
2022-10-02T04:49:45.924Z,2.53
2022-10-02T04:52:42.826Z,2.05
2022-10-02T04:55:31.339Z,1.80
2022-10-02T04:58:18.541Z,1.60
2022-10-02T05:00:52.474Z,2.13
2022-10-02T05:03:37.205Z,1.83
2022-10-02T05:06:21.968Z,2.25
2022-10-02T05:09:03.158Z,2.75
2022-10-02T05:11:57.138Z,1.95
2022-10-02T05:15:04.907Z,1.50
2022-10-02T05:17:47.348Z,1.80
2022-10-02T05:20:35.259Z,1.67
2022-10-02T05:23:17.664Z,1.80
2022-10-02T05:26:03.447Z,1.85
2022-10-02T05:28:53.581Z,2.25
2022-10-02T05:31:33.343Z,2.00
2022-10-02T05:34:18.890Z,1.85
2022-10-02T05:37:06.597Z,1.70
2022-10-02T05:39:37.868Z,1.77
2022-10-02T05:42:14.254Z,1.60
2022-10-02T05:44:46.503Z,2.03
2022-10-02T05:47:23.642Z,1.85
2022-10-02T05:49:57.443Z,1.95
2022-10-02T05:52:32.413Z,1.92
2022-10-02T05:55:08.865Z,2.10
2022-10-02T05:57:42.137Z,1.60
2022-10-02T06:00:31.321Z,1.75
2022-10-02T06:03:09.418Z,2.17
2022-10-02T06:05:46.920Z,1.55
2022-10-02T06:08:19.223Z,1.48
2022-10-02T06:10:51.769Z,1.95
2022-10-02T06:13:25.783Z,1.88
2022-10-02T06:16:00.414Z,1.70
2022-10-02T06:18:34.408Z,1.60
2022-10-02T06:21:08.156Z,2.00
2022-10-02T06:23:43.436Z,2.38
2022-10-02T06:26:16.542Z,2.10
2022-10-02T06:28:51.623Z,1.73
2022-10-02T06:31:27.531Z,1.70
2022-10-02T06:33:56.216Z,1.92
2022-10-02T06:36:42.877Z,1.77
2022-10-02T06:39:32.785Z,1.75
2022-10-02T06:42:10.141Z,1.60
2022-10-02T06:44:47.995Z,1.52
2022-10-02T06:47:34.992Z,1.50
2022-10-02T06:50:21.244Z,1.83
2022-10-02T06:52:59.224Z,1.77
2022-10-02T06:55:41.165Z,2.00
2022-10-02T06:58:26.387Z,2.03
2022-10-02T07:01:04.355Z,2.75
2022-10-02T07:03:45.621Z,1.60
2022-10-02T07:06:21.909Z,1.77
2022-10-02T07:09:16.143Z,2.03
2022-10-02T07:11:55.352Z,1.90
2022-10-02T07:14:32.081Z,2.42
2022-10-02T07:17:14.480Z,1.77
2022-10-02T07:20:07.689Z,3.25
2022-10-02T07:22:51.340Z,4.45
2022-10-02T07:25:52.468Z,3.50
2022-10-02T07:31:03.832Z,2.63
2022-10-02T07:33:48.793Z,2.13
2022-10-02T07:36:27.471Z,2.35
2022-10-02T07:39:16.235Z,1.55
2022-10-02T07:42:04.508Z,1.55
2022-10-02T07:45:00.387Z,2.67
2022-10-02T07:47:49.963Z,2.42
2022-10-02T07:50:27.379Z,3.20
2022-10-02T07:53:03.141Z,2.72
2022-10-02T07:55:31.383Z,3.00
2022-10-02T07:58:04.714Z,2.58
2022-10-02T08:00:38.390Z,3.15
2022-10-02T08:03:11.457Z,3.05
2022-10-02T08:05:44.574Z,2.75
2022-10-02T08:08:19.325Z,2.78
2022-10-02T08:10:52.884Z,2.38
2022-10-02T08:13:28.476Z,1.92
2022-10-02T08:15:57.910Z,2.08
2022-10-02T08:18:34.970Z,2.08
2022-10-02T08:21:05.377Z,2.13
2022-10-02T08:23:38.953Z,2.33
2022-10-02T08:26:13.581Z,2.15
2022-10-02T08:28:45.774Z,3.08
2022-10-02T08:31:16.058Z,3.42
2022-10-02T08:33:44.265Z,2.63
2022-10-02T08:36:58.446Z,2.70
2022-10-02T08:39:45.865Z,2.40
2022-10-02T08:42:45.517Z,2.95
2022-10-02T08:45:34.067Z,2.42
2022-10-02T08:48:34.849Z,3.08
2022-10-02T08:51:39.376Z,4.03
2022-10-02T08:54:35.169Z,2.50
2022-10-02T08:57:19.685Z,2.75
2022-10-02T09:00:11.035Z,2.78
2022-10-02T09:03:33.461Z,2.40
2022-10-02T09:06:48.977Z,2.10
2022-10-02T09:09:53.424Z,3.38
2022-10-02T09:13:28.018Z,2.25
2022-10-02T09:16:10.120Z,2.17
2022-10-02T09:18:55.333Z,2.45
2022-10-02T09:21:44.847Z,2.30
2022-10-02T09:24:52.825Z,2.00
2022-10-02T09:27:54.538Z,2.67
2022-10-02T09:30:35.315Z,2.55
2022-10-02T09:33:35.347Z,2.00
2022-10-02T09:36:47.784Z,2.78
2022-10-02T09:40:03.115Z,2.45
2022-10-02T09:42:58.101Z,2.42
2022-10-02T09:46:00.861Z,2.05
2022-10-02T09:49:06.232Z,2.22
2022-10-02T09:51:56.665Z,2.03
2022-10-02T09:54:52.362Z,1.80
2022-10-02T09:57:47.066Z,2.70
2022-10-02T10:00:27.588Z,2.15
2022-10-02T10:03:30.630Z,3.20
2022-10-02T10:06:24.907Z,2.20
2022-10-02T10:09:40.542Z,1.85
2022-10-02T10:12:48.224Z,2.08
2022-10-02T10:15:57.637Z,2.20
2022-10-02T10:18:57.297Z,1.55
2022-10-02T10:22:06.881Z,1.95
2022-10-02T10:25:13.706Z,2.15
2022-10-02T10:28:09.189Z,2.28
2022-10-02T10:31:01.325Z,1.98
2022-10-02T10:34:11.680Z,2.28
2022-10-02T10:37:15.500Z,1.90
2022-10-02T10:40:18.259Z,2.00
2022-10-02T10:43:28.226Z,2.08
2022-10-02T10:46:17.499Z,1.75
2022-10-02T10:49:11.804Z,1.98
2022-10-02T10:51:48.657Z,2.75
2022-10-02T10:54:48.785Z,2.08
2022-10-02T10:57:37.545Z,1.70
2022-10-02T11:00:19.096Z,1.55
2022-10-02T11:03:22.530Z,1.92
2022-10-02T11:06:12.544Z,2.03
2022-10-02T11:09:12.870Z,2.15
2022-10-02T11:11:59.470Z,1.73
2022-10-02T11:14:38.331Z,2.25
2022-10-02T11:17:41.058Z,1.83
2022-10-02T11:20:29.559Z,2.45
2022-10-02T11:23:23.995Z,1.60
2022-10-02T11:26:16.006Z,1.80
2022-10-02T11:29:13.145Z,1.70
2022-10-02T11:32:03.279Z,1.80
2022-10-02T11:34:55.721Z,2.13
2022-10-02T11:37:41.759Z,2.13
2022-10-02T11:40:23.943Z,1.92
2022-10-02T11:43:03.196Z,1.85
2022-10-02T11:45:55.482Z,1.92
2022-10-02T11:48:49.749Z,1.70
2022-10-02T11:51:53.159Z,1.77
2022-10-02T11:54:44.903Z,2.13
2022-10-02T11:57:28.279Z,1.80
2022-10-02T12:00:09.095Z,1.40
2022-10-02T12:02:53.173Z,1.85
2022-10-02T12:05:38.054Z,1.88
2022-10-02T12:08:17.490Z,1.70
2022-10-02T12:10:53.874Z,1.95
2022-10-02T12:13:33.853Z,2.05
2022-10-02T12:16:12.025Z,1.60
2022-10-02T12:18:57.234Z,1.50
2022-10-02T12:22:03.514Z,1.77
2022-10-02T12:24:58.690Z,1.80
2022-10-02T12:27:40.303Z,2.00
2022-10-02T12:30:12.205Z,1.73
2022-10-02T12:33:21.926Z,2.10
2022-10-02T12:36:08.617Z,1.92
2022-10-02T12:38:52.350Z,1.67
2022-10-02T12:41:37.325Z,1.65
2022-10-02T12:44:33.231Z,2.40
2022-10-02T12:47:15.490Z,1.65
2022-10-02T12:49:55.668Z,1.48
2022-10-02T12:53:04.389Z,1.35
2022-10-02T12:56:01.444Z,1.40
2022-10-02T12:58:43.620Z,1.60
2022-10-02T13:01:39.132Z,1.77
2022-10-02T13:04:45.816Z,2.25
2022-10-02T13:07:55.871Z,1.90
2022-10-02T13:10:26.724Z,1.87
2022-10-02T13:13:12.619Z,1.52
2022-10-02T13:15:54.933Z,1.58
2022-10-02T13:18:43.924Z,1.90
2022-10-02T13:21:21.260Z,1.50
2022-10-02T13:24:05.459Z,1.67
2022-10-02T13:26:42.562Z,1.60
2022-10-02T13:29:37.120Z,1.33
2022-10-02T13:32:31.988Z,1.60
2022-10-02T13:35:30.493Z,1.38
2022-10-02T13:38:17.705Z,1.92
2022-10-02T13:40:55.888Z,1.20
2022-10-02T13:43:40.929Z,1.60
2022-10-02T13:46:18.843Z,1.73
2022-10-02T13:49:00.157Z,1.60
2022-10-02T13:51:46.127Z,2.13
2022-10-02T13:54:39.295Z,1.35
2022-10-02T13:57:21.048Z,1.90
2022-10-02T14:00:02.206Z,1.92
2022-10-02T14:03:05.091Z,2.42
2022-10-02T14:05:42.611Z,3.10
2022-10-02T14:08:31.198Z,2.25
2022-10-02T14:11:10.940Z,2.05
2022-10-02T14:13:54.105Z,2.10
2022-10-02T14:16:36.167Z,2.25
2022-10-02T14:19:31.210Z,2.20
2022-10-02T14:22:19.329Z,2.00
2022-10-02T14:25:10.901Z,2.13
2022-10-02T14:28:23.807Z,1.98
2022-10-02T14:31:17.691Z,1.73
2022-10-02T14:34:05.056Z,1.58
2022-10-02T14:36:40.427Z,2.13
2022-10-02T14:39:27.294Z,2.08
2022-10-02T14:42:28.663Z,2.15
2022-10-02T14:45:21.573Z,4.97
2022-10-02T14:48:03.814Z,3.38
2022-10-02T14:50:44.888Z,1.90
2022-10-02T14:53:33.463Z,2.45
2022-10-02T14:56:43.606Z,1.55
2022-10-02T14:59:24.249Z,1.83
2022-10-02T15:02:04.520Z,1.42
2022-10-02T15:04:46.008Z,2.00
2022-10-02T15:07:16.330Z,2.70
2022-10-02T15:09:59.117Z,2.10
2022-10-02T15:12:43.907Z,1.60
2022-10-02T15:15:17.783Z,2.10
2022-10-02T15:17:56.659Z,2.03
2022-10-02T15:20:37.939Z,2.60
2022-10-02T15:23:10.410Z,1.67
2022-10-02T15:25:55.447Z,2.28
2022-10-02T15:28:38.931Z,2.10
2022-10-02T15:31:19.828Z,1.98
2022-10-02T15:34:02.289Z,2.38
2022-10-02T15:36:53.486Z,2.13
2022-10-02T15:39:52.499Z,1.88
2022-10-02T15:42:29.654Z,1.85
2022-10-02T15:45:20.534Z,1.70
2022-10-02T15:48:06.580Z,1.80
2022-10-02T15:50:46.299Z,1.67
2022-10-02T15:53:33.642Z,1.48
2022-10-02T15:56:16.382Z,1.75
2022-10-02T15:59:01.134Z,1.80
2022-10-02T16:01:44.374Z,2.10
2022-10-02T16:04:25.069Z,1.42
2022-10-02T16:07:32.980Z,1.85
2022-10-02T16:10:15.000Z,2.17
2022-10-02T16:12:58.167Z,1.80
2022-10-02T16:15:31.698Z,2.28
2022-10-02T16:18:23.041Z,1.90
2022-10-02T16:21:13.664Z,2.00
2022-10-02T16:24:10.718Z,2.95
2022-10-02T16:26:59.452Z,2.00
2022-10-02T16:29:35.544Z,1.70
2022-10-02T16:32:17.419Z,2.53
2022-10-02T16:35:16.544Z,1.85
2022-10-02T16:37:46.673Z,1.77
2022-10-02T16:40:26.893Z,2.65
2022-10-02T16:43:20.893Z,2.25
2022-10-02T16:46:04.533Z,2.50
2022-10-02T16:48:42.605Z,3.45
2022-10-02T16:51:27.821Z,2.00
2022-10-02T16:54:03.575Z,2.53
2022-10-02T16:56:41.077Z,2.53
2022-10-02T16:59:15.164Z,2.83
2022-10-02T17:02:05.933Z,3.35
2022-10-02T17:04:50.208Z,3.10
2022-10-02T17:07:31.681Z,3.75
2022-10-02T17:10:07.320Z,3.97
2022-10-02T17:12:45.676Z,2.72
2022-10-02T17:15:22.019Z,2.33
2022-10-02T17:18:06.266Z,2.55
2022-10-02T17:20:43.547Z,2.20
2022-10-02T17:23:21.979Z,2.30
2022-10-02T17:25:58.075Z,3.45
2022-10-02T17:28:34.761Z,2.65
2022-10-02T17:31:35.521Z,2.45
2022-10-02T17:34:19.925Z,2.20
2022-10-02T17:37:02.405Z,2.42
2022-10-02T17:39:53.857Z,3.30
2022-10-02T17:42:35.349Z,4.50
2022-10-02T17:45:16.866Z,3.80
2022-10-02T17:48:07.572Z,3.15
2022-10-02T17:50:58.306Z,6.07
2022-10-02T17:53:56.964Z,5.32
2022-10-02T17:56:55.384Z,4.53
2022-10-02T17:59:41.277Z,4.10
2022-10-02T18:02:19.490Z,4.38
2022-10-02T18:05:19.399Z,6.60
2022-10-02T18:08:18.360Z,5.82
2022-10-02T18:11:14.889Z,7.32
2022-10-02T18:14:00.050Z,6.18
2022-10-02T18:16:45.791Z,5.90
2022-10-02T18:19:27.866Z,3.83
2022-10-02T18:22:20.249Z,3.92
2022-10-02T18:25:21.207Z,3.15
2022-10-02T18:28:05.760Z,3.45
2022-10-02T18:30:46.205Z,3.28
2022-10-02T18:33:42.395Z,3.70
2022-10-02T18:36:24.694Z,2.78
2022-10-02T18:39:01.093Z,2.50
2022-10-02T18:41:48.882Z,2.90
2022-10-02T18:44:51.711Z,3.28
2022-10-02T18:47:36.512Z,5.15
2022-10-02T18:50:21.278Z,6.95
2022-10-02T18:53:15.876Z,5.18
2022-10-02T18:56:03.302Z,3.72
2022-10-02T18:58:44.380Z,5.63
2022-10-02T19:01:39.430Z,6.15
2022-10-02T19:04:24.486Z,5.50
2022-10-02T19:07:02.992Z,4.72
2022-10-02T19:09:32.296Z,6.30
2022-10-02T19:12:05.178Z,4.25
2022-10-02T19:14:41.862Z,3.88
2022-10-02T19:17:14.996Z,5.60
2022-10-02T19:19:45.167Z,5.30
2022-10-02T19:22:20.301Z,5.15
2022-10-02T19:24:51.564Z,4.60
2022-10-02T19:27:26.437Z,4.00
2022-10-02T19:29:57.850Z,3.53
2022-10-02T19:32:31.277Z,4.57
2022-10-02T19:35:07.574Z,4.80
2022-10-02T19:37:42.329Z,4.00
2022-10-02T19:40:16.790Z,4.18
2022-10-02T19:42:49.515Z,5.72
2022-10-02T19:45:25.471Z,4.47
2022-10-02T19:47:59.785Z,5.15
2022-10-02T19:50:41.011Z,4.63
2022-10-02T19:53:21.432Z,4.88
2022-10-02T19:55:53.881Z,4.82
2022-10-02T19:58:24.047Z,7.72
2022-10-02T20:00:54.139Z,5.50
2022-10-02T20:03:24.295Z,5.00
2022-10-02T20:05:58.446Z,4.55
2022-10-02T20:08:30.987Z,4.75
2022-10-02T20:11:05.353Z,4.82
2022-10-02T20:13:37.743Z,5.13
2022-10-02T20:16:31.994Z,5.90
2022-10-02T20:19:00.909Z,5.60
2022-10-02T20:21:39.601Z,5.78
2022-10-02T20:24:18.387Z,5.78
2022-10-02T20:26:48.772Z,5.95
2022-10-02T20:29:24.174Z,7.05
2022-10-02T20:31:59.537Z,6.18
2022-10-02T20:34:35.794Z,6.22
2022-10-02T20:37:09.453Z,7.38
2022-10-02T20:39:41.344Z,7.07
2022-10-02T20:42:16.239Z,7.40
2022-10-02T20:44:44.444Z,7.05
2022-10-02T20:47:45.377Z,7.47
2022-10-02T20:50:31.425Z,6.82
2022-10-02T20:53:37.814Z,6.25
2022-10-02T20:56:11.759Z,5.93
2022-10-02T20:58:57.262Z,6.97
2022-10-02T21:01:35.780Z,5.50
2022-10-02T21:04:36.949Z,6.43
2022-10-02T21:07:21.904Z,5.82
2022-10-02T21:10:28.345Z,6.25
2022-10-02T21:13:33.039Z,6.50
2022-10-02T21:16:37.130Z,5.80
2022-10-02T21:19:47.171Z,5.85
2022-10-02T21:22:44.208Z,5.82
2022-10-02T21:25:40.312Z,5.50
2022-10-02T21:28:54.683Z,5.93
2022-10-02T21:31:37.791Z,6.13
2022-10-02T21:34:21.822Z,6.25
2022-10-02T21:36:54.861Z,7.22
2022-10-02T21:40:01.023Z,6.10
2022-10-02T21:43:17.717Z,6.07
2022-10-02T21:46:23.060Z,6.32
2022-10-02T21:49:20.845Z,6.65
2022-10-02T21:52:16.538Z,7.05
2022-10-02T21:55:13.259Z,6.43
2022-10-02T21:58:21.795Z,7.53
2022-10-02T22:01:09.062Z,7.65
2022-10-02T22:04:11.960Z,7.63
2022-10-02T22:06:50.137Z,7.40
2022-10-02T22:09:38.355Z,6.93
2022-10-02T22:12:20.756Z,6.55
2022-10-02T22:14:58.755Z,6.00
2022-10-02T22:17:32.700Z,6.82
2022-10-02T22:20:41.420Z,7.43
2022-10-02T22:23:29.226Z,7.80
2022-10-02T22:26:12.538Z,7.63
2022-10-02T22:28:46.067Z,7.40
2022-10-02T22:31:36.329Z,6.85
2022-10-02T22:34:22.432Z,7.47
2022-10-02T22:37:07.958Z,6.33
2022-10-02T22:39:41.339Z,6.72
2022-10-02T22:42:18.059Z,7.22
2022-10-02T22:44:52.462Z,6.78
2022-10-02T22:47:28.779Z,7.25
2022-10-02T22:50:05.178Z,7.45
2022-10-02T22:52:42.856Z,7.32
2022-10-02T22:55:16.154Z,6.40
2022-10-02T22:57:50.478Z,6.37
2022-10-02T23:00:22.007Z,6.17
2022-10-02T23:02:58.047Z,6.37
2022-10-02T23:05:33.214Z,7.17
2022-10-02T23:08:13.740Z,6.90
2022-10-02T23:10:46.675Z,6.07
2022-10-02T23:13:23.129Z,5.67
2022-10-02T23:15:59.430Z,6.07
2022-10-02T23:18:37.522Z,5.33
2022-10-02T23:21:19.420Z,6.17
2022-10-02T23:23:55.507Z,5.60
2022-10-02T23:26:33.362Z,5.97
2022-10-02T23:29:15.359Z,5.80
2022-10-02T23:31:51.307Z,4.67
2022-10-02T23:34:30.948Z,5.20
2022-10-02T23:37:02.944Z,5.07
2022-10-02T23:39:40.080Z,5.43
2022-10-02T23:42:11.951Z,4.83
2022-10-02T23:44:44.986Z,5.33
2022-10-02T23:47:25.314Z,4.83
2022-10-02T23:49:55.421Z,5.85
2022-10-02T23:52:58.284Z,5.87
2022-10-02T23:55:44.741Z,5.43
2022-10-02T23:58:31.292Z,5.27
